Terminal Aerodrome Forecast
Issued by NWS Sioux Falls, SD

Home | Current Version | Previous Version | Graphics & Text | Print | Product List | Glossary Off
Versions: 1 2 3 4 5 6 7 8 9 10 11 12 13 14 15

000
FTUS43 KFSD 282322
TAFFSD
TAF
KFSD 282322Z 2900/2924 18014G21KT P6SM SCT040 SCT100
     FM290130 17008KT P6SM SCT040
      TEMPO 2908/2909 P6SM -TSRA BKN060CB
     FM291200 VRB04KT 6SM SHRA BKN040 BKN080
     FM291500 01010KT 6SM -RA OVC025
     FM291700 03015KT P6SM BKN020=

USA.gov is the U.S. government's official web portal to all federal, state and local government web resources and services.